createdAt,value
2022-08-20T00:02:09.880Z,99.48
2022-08-20T00:04:36.951Z,99.47
2022-08-20T00:07:06.561Z,99.58
2022-08-20T00:09:36.857Z,99.42
2022-08-20T00:12:07.604Z,99.82
2022-08-20T00:14:35.218Z,99.32
2022-08-20T00:17:05.533Z,99.33
2022-08-20T00:19:31.963Z,99.22
2022-08-20T00:21:58.689Z,98.79
2022-08-20T00:24:25.905Z,99.12
2022-08-20T00:26:53.005Z,98.84
2022-08-20T00:29:20.616Z,98.60
2022-08-20T00:31:50.411Z,98.48
2022-08-20T00:34:22.864Z,98.44
2022-08-20T00:36:49.509Z,98.30
2022-08-20T00:39:19.019Z,98.50
2022-08-20T00:41:45.944Z,98.62
2022-08-20T00:44:22.653Z,98.37
2022-08-20T00:46:51.013Z,97.93
2022-08-20T00:49:24.941Z,98.12
2022-08-20T00:52:02.723Z,97.54
2022-08-20T00:54:34.498Z,97.85
2022-08-20T00:57:29.397Z,98.79
2022-08-20T01:00:24.454Z,98.19
2022-08-20T01:05:31.999Z,98.69
2022-08-20T01:08:26.801Z,98.82
2022-08-20T01:11:47.289Z,98.74
2022-08-20T01:14:33.521Z,98.85
2022-08-20T01:17:06.221Z,98.88
2022-08-20T01:19:43.143Z,98.92
2022-08-20T01:22:29.104Z,98.95
2022-08-20T01:25:05.982Z,98.73
2022-08-20T01:27:33.671Z,98.77
2022-08-20T01:30:10.007Z,98.89
2022-08-20T01:32:36.567Z,99.31
2022-08-20T01:35:04.620Z,98.96
2022-08-20T01:37:31.529Z,99.08
2022-08-20T01:39:58.655Z,98.73
2022-08-20T01:42:37.893Z,98.17
2022-08-20T01:45:26.949Z,98.92
2022-08-20T01:47:54.485Z,99.13
2022-08-20T01:50:26.008Z,99.00
2022-08-20T01:53:01.529Z,98.81
2022-08-20T01:55:28.202Z,98.25
2022-08-20T01:57:55.252Z,98.57
2022-08-20T02:00:22.790Z,98.57
2022-08-20T02:02:49.951Z,98.53
2022-08-20T02:05:18.006Z,98.73
2022-08-20T02:07:44.482Z,98.30
2022-08-20T02:10:15.036Z,98.75
2022-08-20T02:12:41.690Z,98.78
2022-08-20T02:15:11.161Z,98.73
2022-08-20T02:17:39.214Z,98.65
2022-08-20T02:20:13.899Z,98.75
2022-08-20T02:22:50.094Z,98.77
2022-08-20T02:25:19.584Z,98.86
2022-08-20T02:27:48.694Z,98.91
2022-08-20T02:30:28.348Z,98.66
2022-08-20T02:32:56.926Z,98.62
2022-08-20T02:35:25.104Z,98.64
2022-08-20T02:37:52.736Z,98.90
2022-08-20T02:40:30.435Z,98.92
2022-08-20T02:43:01.684Z,99.52
2022-08-20T02:45:30.197Z,99.69
2022-08-20T02:47:57.629Z,99.02
2022-08-20T02:50:26.041Z,98.57
2022-08-20T02:52:53.072Z,98.92
2022-08-20T02:55:27.384Z,98.89
2022-08-20T02:57:58.662Z,98.75
2022-08-20T03:00:27.346Z,98.86
2022-08-20T03:02:53.924Z,98.69
2022-08-20T03:05:20.529Z,98.85
2022-08-20T03:07:49.928Z,98.15
2022-08-20T03:10:17.189Z,98.38
2022-08-20T03:12:43.782Z,98.48
2022-08-20T03:15:17.164Z,98.78
2022-08-20T03:17:44.832Z,98.62
2022-08-20T03:20:15.534Z,99.10
2022-08-20T03:22:42.427Z,99.32
2022-08-20T03:25:09.915Z,99.84
2022-08-20T03:27:36.769Z,99.23
2022-08-20T03:30:05.881Z,99.18
2022-08-20T03:32:32.568Z,99.16
2022-08-20T03:34:59.097Z,99.36
2022-08-20T03:37:28.877Z,99.02
2022-08-20T03:39:55.342Z,99.28
2022-08-20T03:42:21.916Z,99.27
2022-08-20T03:44:49.136Z,98.69
2022-08-20T03:47:25.662Z,98.93
2022-08-20T03:49:52.201Z,99.20
2022-08-20T03:52:19.556Z,99.21
2022-08-20T03:54:46.191Z,99.41
2022-08-20T03:57:15.063Z,99.07
2022-08-20T03:59:55.135Z,99.06
2022-08-20T04:02:26.045Z,99.04
2022-08-20T04:04:52.609Z,98.76
2022-08-20T04:07:25.618Z,99.03
2022-08-20T04:09:53.382Z,99.40
2022-08-20T04:12:19.944Z,99.25
2022-08-20T04:14:47.665Z,98.99
2022-08-20T04:17:14.835Z,98.88
2022-08-20T04:19:41.692Z,98.92
2022-08-20T04:22:08.596Z,98.95
2022-08-20T04:24:35.387Z,99.03
2022-08-20T04:27:05.399Z,99.09
2022-08-20T04:29:35.218Z,99.03
2022-08-20T04:32:03.385Z,98.76
2022-08-20T04:34:33.181Z,98.87
2022-08-20T04:36:59.653Z,98.90
2022-08-20T04:39:26.816Z,98.99
2022-08-20T04:41:53.320Z,99.18
2022-08-20T04:44:21.747Z,99.15
2022-08-20T04:46:48.663Z,99.25
2022-08-20T04:49:15.284Z,97.95
2022-08-20T04:51:41.772Z,97.92
2022-08-20T04:54:08.291Z,97.83
2022-08-20T04:56:39.744Z,98.02
2022-08-20T04:59:07.382Z,97.99
2022-08-20T05:01:35.032Z,98.05
2022-08-20T05:04:01.769Z,98.04
2022-08-20T05:06:31.157Z,98.24
2022-08-20T05:09:00.323Z,98.12
2022-08-20T05:11:35.210Z,97.49
2022-08-20T05:14:05.307Z,97.82
2022-08-20T05:16:37.912Z,97.40
2022-08-20T05:19:07.479Z,97.34
2022-08-20T05:21:34.581Z,97.65
2022-08-20T05:24:02.981Z,96.95
2022-08-20T05:26:32.720Z,96.80
2022-08-20T05:29:02.745Z,97.04
2022-08-20T05:31:32.436Z,97.26
2022-08-20T05:34:13.108Z,97.36
2022-08-20T05:36:49.644Z,98.24
2022-08-20T05:39:21.279Z,97.41
2022-08-20T05:41:54.057Z,97.25
2022-08-20T05:44:20.893Z,96.96
2022-08-20T05:46:48.326Z,97.05
2022-08-20T05:49:20.939Z,97.47
2022-08-20T05:51:49.443Z,97.19
2022-08-20T05:54:16.268Z,96.51
2022-08-20T05:56:42.933Z,95.99
2022-08-20T05:59:10.897Z,95.90
2022-08-20T06:01:39.383Z,95.72
2022-08-20T06:04:25.268Z,95.89
2022-08-20T06:06:53.787Z,96.03
2022-08-20T06:09:28.704Z,95.31
2022-08-20T06:11:59.702Z,94.67
2022-08-20T06:14:26.734Z,94.46
2022-08-20T06:16:57.654Z,95.37
2022-08-20T06:19:32.309Z,94.40
2022-08-20T06:22:00.622Z,94.60
2022-08-20T06:24:27.555Z,93.97
2022-08-20T06:27:02.688Z,93.27
2022-08-20T06:29:30.327Z,92.87
2022-08-20T06:31:57.534Z,93.01
2022-08-20T06:34:28.390Z,91.65
2022-08-20T06:37:02.500Z,91.59
2022-08-20T06:39:31.833Z,91.64
2022-08-20T06:42:01.619Z,90.74
2022-08-20T06:44:28.483Z,90.86
2022-08-20T06:47:01.253Z,90.00
2022-08-20T06:49:27.959Z,89.02
2022-08-20T06:52:02.387Z,88.13
2022-08-20T06:54:29.419Z,87.79
2022-08-20T06:56:56.529Z,87.70
2022-08-20T06:59:28.747Z,86.58
2022-08-20T07:01:56.715Z,85.81
2022-08-20T07:04:26.028Z,85.31
2022-08-20T07:07:03.216Z,85.45
2022-08-20T07:09:29.954Z,85.35
2022-08-20T07:11:56.817Z,86.12
2022-08-20T07:14:23.741Z,85.82
2022-08-20T07:16:50.625Z,85.57
2022-08-20T07:19:19.940Z,84.92
2022-08-20T07:21:49.926Z,85.46
2022-08-20T07:24:16.749Z,84.67
2022-08-20T07:26:43.829Z,83.36
2022-08-20T07:29:10.559Z,82.77
2022-08-20T07:31:58.051Z,81.54
2022-08-20T07:34:24.713Z,81.14
2022-08-20T07:36:53.897Z,80.16
2022-08-20T07:39:24.393Z,79.81
2022-08-20T07:42:03.183Z,78.26
2022-08-20T07:44:31.193Z,75.88
2022-08-20T07:47:01.366Z,77.79
2022-08-20T07:49:32.275Z,77.38
2022-08-20T07:51:59.078Z,77.61
2022-08-20T07:54:27.196Z,76.47
2022-08-20T07:57:03.418Z,74.76
2022-08-20T07:59:33.790Z,75.21
2022-08-20T08:02:03.078Z,75.27
2022-08-20T08:04:29.875Z,75.30
2022-08-20T08:07:00.199Z,73.54
2022-08-20T08:09:28.352Z,73.71
2022-08-20T08:12:00.012Z,72.74
2022-08-20T08:14:29.773Z,72.84
2022-08-20T08:17:02.426Z,71.40
2022-08-20T08:19:36.266Z,70.30
2022-08-20T08:22:03.828Z,72.02
2022-08-20T08:24:33.688Z,70.95
2022-08-20T08:27:00.689Z,71.50
2022-08-20T08:29:27.559Z,70.94
2022-08-20T08:31:54.309Z,71.50
2022-08-20T08:34:21.114Z,69.13
2022-08-20T08:36:47.858Z,70.78
2022-08-20T08:39:14.691Z,71.88
2022-08-20T08:41:48.550Z,71.91
2022-08-20T08:44:41.783Z,72.40
2022-08-20T08:47:18.760Z,70.93
2022-08-20T08:49:47.629Z,71.63
2022-08-20T08:52:37.469Z,71.56
2022-08-20T08:55:10.214Z,71.14
2022-08-20T08:57:41.550Z,72.64
2022-08-20T09:00:18.423Z,71.28
2022-08-20T09:03:17.285Z,71.85
2022-08-20T09:05:50.758Z,71.93
2022-08-20T09:08:25.647Z,72.79
2022-08-20T09:10:52.391Z,70.96
2022-08-20T09:13:19.373Z,71.84
2022-08-20T09:15:46.398Z,68.85
2022-08-20T09:18:13.280Z,69.15
2022-08-20T09:20:43.145Z,66.50
2022-08-20T09:23:09.934Z,68.04
2022-08-20T09:25:36.941Z,65.29
2022-08-20T09:28:06.246Z,66.34
2022-08-20T09:30:33.021Z,65.55
2022-08-20T09:33:00.635Z,64.89
2022-08-20T09:35:30.895Z,66.77
2022-08-20T09:37:57.672Z,65.94
2022-08-20T09:40:28.776Z,64.65
2022-08-20T09:43:01.020Z,62.21
2022-08-20T09:45:34.450Z,64.13
2022-08-20T09:48:01.181Z,65.83
2022-08-20T09:50:30.491Z,63.68
2022-08-20T09:52:59.679Z,62.85
2022-08-20T09:55:34.394Z,63.20
2022-08-20T09:58:16.994Z,61.09
2022-08-20T10:00:45.862Z,58.89
2022-08-20T10:03:12.842Z,55.84
2022-08-20T10:05:39.645Z,55.72
2022-08-20T10:08:09.085Z,57.47
2022-08-20T10:10:36.235Z,55.72
2022-08-20T10:13:03.495Z,55.34
2022-08-20T10:15:31.187Z,59.85
2022-08-20T10:17:58.174Z,55.46
2022-08-20T10:20:25.791Z,57.65
2022-08-20T10:22:52.398Z,57.05
2022-08-20T10:25:23.464Z,54.98
2022-08-20T10:27:50.206Z,56.94
2022-08-20T10:30:17.493Z,56.66
2022-08-20T10:32:44.179Z,55.97
2022-08-20T10:35:10.809Z,57.27
2022-08-20T10:37:39.603Z,54.26
2022-08-20T10:40:07.678Z,57.40
2022-08-20T10:42:56.416Z,54.24
2022-08-20T10:45:26.234Z,55.97
2022-08-20T10:47:53.067Z,53.97
2022-08-20T10:50:20.200Z,55.22
2022-08-20T10:52:49.855Z,53.72
2022-08-20T10:55:18.190Z,53.88
2022-08-20T10:57:48.861Z,52.98
2022-08-20T11:00:21.462Z,53.36
2022-08-20T11:02:48.185Z,52.46
2022-08-20T11:05:15.074Z,52.15
2022-08-20T11:07:55.109Z,51.68
2022-08-20T11:10:27.458Z,53.83
2022-08-20T11:12:54.494Z,53.17
2022-08-20T11:15:21.599Z,52.60
2022-08-20T11:17:48.470Z,52.96
2022-08-20T11:20:40.039Z,51.44
2022-08-20T11:23:23.347Z,50.18
2022-08-20T11:25:51.575Z,49.56
2022-08-20T11:28:31.079Z,49.37
2022-08-20T11:31:07.135Z,50.59
2022-08-20T11:33:36.738Z,50.71
2022-08-20T11:36:03.319Z,52.15
2022-08-20T11:38:34.096Z,53.10
2022-08-20T11:41:00.781Z,52.61
2022-08-20T11:43:30.092Z,55.64
2022-08-20T11:45:57.766Z,55.59
2022-08-20T11:48:24.592Z,55.81
2022-08-20T11:50:51.323Z,56.19
2022-08-20T11:53:31.649Z,55.46
2022-08-20T11:56:00.297Z,53.83
2022-08-20T11:58:29.584Z,54.19
2022-08-20T12:01:04.936Z,53.56
2022-08-20T12:03:34.312Z,52.05
2022-08-20T12:06:04.054Z,52.61
2022-08-20T12:08:33.659Z,52.11
2022-08-20T12:11:09.928Z,51.88
2022-08-20T12:13:49.249Z,51.14
2022-08-20T12:16:19.554Z,50.11
2022-08-20T12:18:47.047Z,51.37
2022-08-20T12:21:14.162Z,51.77
2022-08-20T12:23:43.801Z,49.67
2022-08-20T12:26:12.316Z,49.24
2022-08-20T12:28:39.137Z,50.04
2022-08-20T12:31:05.971Z,48.90
2022-08-20T12:33:39.095Z,49.37
2022-08-20T12:36:06.230Z,49.20
2022-08-20T12:38:36.207Z,47.33
2022-08-20T12:41:06.044Z,49.60
2022-08-20T12:43:36.204Z,49.96
2022-08-20T12:46:05.476Z,49.20
2022-08-20T12:48:42.601Z,50.85
2022-08-20T12:51:10.210Z,49.63
2022-08-20T12:53:40.285Z,50.25
2022-08-20T12:56:07.278Z,49.99
2022-08-20T12:58:34.834Z,51.76
2022-08-20T13:01:01.754Z,52.08
2022-08-20T13:03:28.929Z,52.19
2022-08-20T13:06:17.256Z,52.96
2022-08-20T13:08:49.564Z,52.79
2022-08-20T13:11:16.389Z,52.60
2022-08-20T13:13:43.645Z,53.08
2022-08-20T13:16:10.267Z,53.61
2022-08-20T13:18:41.789Z,53.20
2022-08-20T13:21:11.228Z,53.33
2022-08-20T13:23:38.075Z,53.45
2022-08-20T13:26:05.238Z,52.77
2022-08-20T13:28:32.060Z,52.31
2022-08-20T13:30:58.799Z,51.08
2022-08-20T13:33:26.633Z,50.04
2022-08-20T13:35:53.276Z,50.01
2022-08-20T13:38:20.021Z,48.62
2022-08-20T13:40:48.836Z,48.36
2022-08-20T13:43:16.124Z,46.46
2022-08-20T13:45:42.786Z,47.14
2022-08-20T13:48:15.108Z,46.54
2022-08-20T13:50:42.568Z,47.13
2022-08-20T13:53:09.156Z,47.36
2022-08-20T13:55:39.129Z,48.61
2022-08-20T13:58:07.556Z,47.68
2022-08-20T14:00:38.926Z,47.83
2022-08-20T14:03:06.985Z,48.60
2022-08-20T14:05:44.291Z,48.61
2022-08-20T14:08:17.380Z,49.63
2022-08-20T14:10:51.488Z,49.31
2022-08-20T14:13:23.201Z,49.53
2022-08-20T14:15:50.118Z,49.96
2022-08-20T14:18:17.739Z,50.47
2022-08-20T14:20:46.957Z,50.33
2022-08-20T14:23:14.950Z,50.54
2022-08-20T14:25:46.041Z,50.99
2022-08-20T14:28:18.429Z,51.09
2022-08-20T14:30:48.681Z,52.75
2022-08-20T14:33:28.993Z,53.08
2022-08-20T14:35:58.805Z,52.66
2022-08-20T14:38:25.657Z,52.99
2022-08-20T14:40:55.771Z,52.10
2022-08-20T14:43:23.755Z,51.05
2022-08-20T14:45:55.573Z,51.92
2022-08-20T14:48:26.764Z,53.50
2022-08-20T14:51:02.916Z,52.51
2022-08-20T14:53:40.588Z,52.05
2022-08-20T14:56:11.242Z,53.00
2022-08-20T14:58:43.096Z,53.37
2022-08-20T15:01:25.459Z,52.74
2022-08-20T15:03:55.015Z,51.89
2022-08-20T15:06:22.543Z,51.52
2022-08-20T15:08:51.906Z,50.96
2022-08-20T15:11:23.341Z,51.75
2022-08-20T15:13:55.242Z,52.53
2022-08-20T15:16:26.061Z,53.32
2022-08-20T15:18:59.730Z,54.19
2022-08-20T15:21:27.618Z,54.60
2022-08-20T15:23:56.109Z,55.04
2022-08-20T15:26:22.952Z,56.16
2022-08-20T15:28:55.718Z,56.31
2022-08-20T15:31:25.554Z,58.07
2022-08-20T15:33:52.250Z,59.07
2022-08-20T15:36:21.357Z,60.76
2022-08-20T15:38:47.978Z,61.19
2022-08-20T15:41:14.771Z,63.38
2022-08-20T15:43:41.452Z,64.21
2022-08-20T15:46:08.208Z,64.72
2022-08-20T15:48:48.584Z,66.06
2022-08-20T15:51:23.196Z,67.60
2022-08-20T15:54:02.691Z,67.21
2022-08-20T15:57:01.660Z,69.70
2022-08-20T15:59:59.436Z,69.16
2022-08-20T16:03:00.080Z,67.95
2022-08-20T16:05:56.563Z,65.84
2022-08-20T16:08:48.019Z,63.67
2022-08-20T16:11:28.584Z,62.67
2022-08-20T16:14:06.006Z,63.45
2022-08-20T16:16:37.344Z,64.84
2022-08-20T16:19:06.240Z,65.32
2022-08-20T16:21:39.501Z,66.60
2022-08-20T16:24:08.260Z,66.65
2022-08-20T16:26:53.539Z,66.12
2022-08-20T16:29:31.977Z,66.31
2022-08-20T16:32:13.326Z,66.65
2022-08-20T16:35:12.561Z,65.84
2022-08-20T16:37:49.336Z,65.33
2022-08-20T16:40:29.995Z,64.38
2022-08-20T16:43:02.060Z,63.89
2022-08-20T16:45:42.499Z,62.81
2022-08-20T16:48:12.546Z,62.30
2022-08-20T16:50:56.689Z,62.25
2022-08-20T16:53:31.835Z,62.08
2022-08-20T16:55:58.611Z,62.00
2022-08-20T16:58:27.811Z,61.25
2022-08-20T17:01:08.102Z,61.05
2022-08-20T17:03:43.538Z,60.98
2022-08-20T17:06:46.909Z,60.14
2022-08-20T17:09:31.727Z,60.56
2022-08-20T17:12:22.942Z,61.05
2022-08-20T17:14:59.094Z,61.17
2022-08-20T17:17:37.818Z,60.88
2022-08-20T17:20:16.315Z,60.88
2022-08-20T17:22:54.815Z,60.89
2022-08-20T17:25:31.986Z,61.11
2022-08-20T17:28:21.122Z,61.38
2022-08-20T17:30:53.635Z,61.77
2022-08-20T17:33:43.107Z,62.09
2022-08-20T17:39:14.411Z,62.62
2022-08-20T17:41:49.131Z,62.58
2022-08-20T17:44:30.268Z,62.94
2022-08-20T17:46:59.916Z,62.57
2022-08-20T17:49:41.112Z,62.60
2022-08-20T17:52:25.574Z,63.53
2022-08-20T17:55:01.519Z,63.85
2022-08-20T17:57:40.951Z,63.86
2022-08-20T18:00:16.923Z,63.84
2022-08-20T18:02:46.151Z,63.76
2022-08-20T18:05:27.326Z,63.42
2022-08-20T18:08:16.099Z,64.13
2022-08-20T18:10:55.291Z,66.61
2022-08-20T18:13:51.944Z,67.92
2022-08-20T18:16:41.998Z,67.54
2022-08-20T18:19:20.117Z,68.57
2022-08-20T18:22:25.353Z,67.65
2022-08-20T18:25:09.601Z,68.03
2022-08-20T18:27:53.051Z,67.30
2022-08-20T18:30:22.855Z,67.66
2022-08-20T18:33:03.521Z,67.54
2022-08-20T18:35:45.823Z,67.11
2022-08-20T18:38:22.717Z,67.15
2022-08-20T18:40:54.487Z,68.88
2022-08-20T18:43:30.513Z,69.38
2022-08-20T18:46:11.289Z,69.74
2022-08-20T18:48:39.507Z,69.68
2022-08-20T18:51:13.060Z,70.30
2022-08-20T18:53:48.111Z,70.58
2022-08-20T18:56:30.939Z,70.04
2022-08-20T18:59:23.725Z,71.13
2022-08-20T19:01:50.682Z,72.46
2022-08-20T19:04:37.416Z,72.33
2022-08-20T19:07:11.357Z,72.42
2022-08-20T19:10:28.138Z,73.11
2022-08-20T19:13:19.924Z,73.11
2022-08-20T19:15:55.300Z,74.27
2022-08-20T19:18:37.524Z,77.21
2022-08-20T19:21:08.908Z,74.98
2022-08-20T19:23:51.071Z,76.25
2022-08-20T19:26:25.830Z,78.02
2022-08-20T19:29:04.260Z,77.84
2022-08-20T19:31:38.064Z,76.19
2022-08-20T19:34:24.202Z,77.28
2022-08-20T19:37:27.778Z,78.73
2022-08-20T19:39:58.630Z,78.11
2022-08-20T19:42:34.084Z,78.06
2022-08-20T19:45:20.514Z,77.54
2022-08-20T19:48:03.431Z,77.76
2022-08-20T19:50:48.673Z,78.31
2022-08-20T19:53:36.205Z,77.95
2022-08-20T19:59:10.803Z,79.06
2022-08-20T20:01:40.040Z,79.34
2022-08-20T20:04:16.742Z,79.98
2022-08-20T20:06:48.523Z,79.54
2022-08-20T20:09:24.412Z,79.56
2022-08-20T20:12:00.559Z,80.33
2022-08-20T20:14:34.463Z,80.50
2022-08-20T20:17:22.423Z,80.18
2022-08-20T20:20:17.035Z,80.82
2022-08-20T20:23:16.141Z,81.53
2022-08-20T20:25:56.521Z,80.12
2022-08-20T20:28:57.040Z,81.58
2022-08-20T20:31:46.834Z,81.12
2022-08-20T20:34:23.606Z,81.53
2022-08-20T20:37:02.741Z,81.59
2022-08-20T20:39:37.044Z,81.74
2022-08-20T20:42:09.310Z,81.32
2022-08-20T20:44:48.160Z,81.68
2022-08-20T20:47:32.693Z,80.79
2022-08-20T20:50:06.089Z,80.53
2022-08-20T20:52:37.765Z,80.94
2022-08-20T20:55:37.342Z,81.46
2022-08-20T20:58:04.705Z,80.86
2022-08-20T21:00:33.083Z,80.58
2022-08-20T21:03:02.557Z,81.27
2022-08-20T21:05:30.587Z,80.88
2022-08-20T21:08:10.110Z,80.88
2022-08-20T21:10:39.637Z,80.86
2022-08-20T21:13:11.086Z,81.22
2022-08-20T21:15:39.051Z,81.28
2022-08-20T21:18:09.999Z,81.90
2022-08-20T21:20:37.361Z,82.07
2022-08-20T21:23:04.293Z,82.10
2022-08-20T21:25:33.223Z,81.68
2022-08-20T21:28:00.437Z,82.23
2022-08-20T21:30:27.825Z,82.86
2022-08-20T21:32:54.697Z,82.61
2022-08-20T21:35:31.126Z,83.19
2022-08-20T21:37:58.036Z,82.51
2022-08-20T21:40:28.446Z,82.43
2022-08-20T21:42:55.941Z,83.02
2022-08-20T21:45:22.744Z,83.07
2022-08-20T21:47:53.758Z,82.81
2022-08-20T21:50:24.537Z,82.43
2022-08-20T21:52:59.322Z,83.00
2022-08-20T21:55:29.634Z,83.07
2022-08-20T21:58:00.559Z,83.05
2022-08-20T22:00:57.664Z,82.61
2022-08-20T22:03:34.305Z,83.34
2022-08-20T22:06:06.196Z,83.08
2022-08-20T22:08:32.939Z,83.57
2022-08-20T22:11:00.294Z,83.54
2022-08-20T22:13:31.702Z,83.77
2022-08-20T22:16:00.494Z,84.18
2022-08-20T22:18:27.845Z,84.60
2022-08-20T22:20:54.552Z,85.14
2022-08-20T22:23:21.999Z,85.22
2022-08-20T22:25:48.851Z,86.67
2022-08-20T22:28:17.315Z,85.14
2022-08-20T22:30:44.501Z,85.62
2022-08-20T22:33:16.846Z,85.65
2022-08-20T22:35:51.480Z,87.42
2022-08-20T22:38:18.560Z,86.43
2022-08-20T22:40:46.310Z,86.21
2022-08-20T22:43:13.562Z,85.55
2022-08-20T22:45:43.187Z,86.41
2022-08-20T22:48:11.140Z,86.68
2022-08-20T22:50:38.386Z,86.56
2022-08-20T22:53:07.083Z,86.83
2022-08-20T22:55:33.938Z,86.34
2022-08-20T22:58:00.981Z,86.97
2022-08-20T23:00:27.824Z,86.33
2022-08-20T23:02:58.299Z,86.20
2022-08-20T23:05:30.501Z,85.90
2022-08-20T23:08:02.656Z,86.44
2022-08-20T23:10:30.717Z,86.64
2022-08-20T23:12:58.479Z,87.04
2022-08-20T23:15:27.486Z,86.62
2022-08-20T23:18:00.583Z,86.74
2022-08-20T23:20:27.538Z,86.78
2022-08-20T23:22:54.721Z,86.69
2022-08-20T23:25:22.018Z,87.25
2022-08-20T23:27:51.229Z,86.98
2022-08-20T23:30:20.107Z,87.32
2022-08-20T23:32:47.276Z,87.02
2022-08-20T23:35:14.552Z,87.51
2022-08-20T23:37:45.243Z,86.94
2022-08-20T23:40:12.952Z,86.82
2022-08-20T23:42:39.827Z,87.53
2022-08-20T23:45:07.268Z,87.07
2022-08-20T23:47:34.835Z,86.88
2022-08-20T23:50:01.796Z,86.79
2022-08-20T23:52:28.977Z,87.02
2022-08-20T23:54:55.696Z,87.18
2022-08-20T23:57:24.660Z,87.28
2022-08-20T23:59:53.009Z,87.43
